Time;durP1;ratioP1;P1;durP2;ratioP2;P2;SDS_P1;SDS_P2;PMS_P1;PMS_P2;Temp;Humidity;BMP_temperature;BMP_pressure;BME280_temperature;BME280_humidity;BME280_pressure;Samples;Min_cycle;Max_cycle;Signal;HPM_P1;HPM_P2
2023/06/20 00:00:39;;;;;;;25.67;16.15;;;;;;;21.83;100.00;101009.34;5102415;28;20517;-63
2023/06/20 00:03:05;;;;;;;25.15;15.95;;;;;;;21.80;100.00;101012.16;5104658;28;20085;-68
2023/06/20 00:05:30;;;;;;;24.70;15.43;;;;;;;21.71;100.00;101010.72;5103399;28;20047;-66
2023/06/20 00:07:55;;;;;;;25.83;15.50;;;;;;;21.63;100.00;101010.16;5085075;28;20478;-67
2023/06/20 00:10:21;;;;;;;24.67;15.15;;;;;;;21.60;100.00;101016.53;5104568;28;20420;-63
2023/06/20 00:12:47;;;;;;;25.35;15.73;;;;;;;21.52;100.00;101013.25;5101757;28;20028;-62
2023/06/20 00:15:12;;;;;;;24.65;14.82;;;;;;;21.44;100.00;101005.44;5097759;28;20039;-66
2023/06/20 00:17:38;;;;;;;24.65;15.23;;;;;;;21.43;100.00;101014.44;5104344;28;20088;-64
2023/06/20 00:20:11;;;;;;;24.27;15.20;;;;;;;21.37;100.00;101010.16;5102645;28;20045;-65
2023/06/20 00:22:36;;;;;;;24.38;14.57;;;;;;;21.29;100.00;100995.25;5104313;28;20043;-66
2023/06/20 00:25:03;;;;;;;25.67;14.45;;;;;;;21.38;100.00;101003.00;5102451;28;20474;-67
2023/06/20 00:27:28;;;;;;;23.40;13.52;;;;;;;21.31;100.00;101001.47;5102959;28;20047;-61
2023/06/20 00:29:54;;;;;;;23.10;13.65;;;;;;;21.26;100.00;101001.66;5104104;28;20028;-70
2023/06/20 00:32:19;;;;;;;23.50;13.68;;;;;;;21.16;100.00;101001.13;5101600;28;20031;-70
2023/06/20 00:34:44;;;;;;;23.65;13.02;;;;;;;21.16;100.00;100993.06;5104680;28;20061;-70
2023/06/20 00:37:10;;;;;;;24.55;13.43;;;;;;;21.15;100.00;101006.56;5083609;28;20035;-70
2023/06/20 00:39:35;;;;;;;24.58;13.60;;;;;;;21.14;100.00;100999.41;5103608;28;20024;-70
2023/06/20 00:42:01;;;;;;;23.48;13.65;;;;;;;21.11;100.00;100999.53;5102833;28;20023;-70
2023/06/20 00:44:26;;;;;;;23.00;13.55;;;;;;;21.05;100.00;101001.50;5102673;28;20028;-69
2023/06/20 00:46:51;;;;;;;23.67;13.60;;;;;;;21.04;100.00;100999.78;5104124;28;20031;-70
2023/06/20 00:49:17;;;;;;;23.67;14.10;;;;;;;21.04;100.00;100999.78;5101301;28;20054;-70
2023/06/20 00:51:43;;;;;;;24.13;13.95;;;;;;;21.03;100.00;100998.00;5097057;28;20028;-70
2023/06/20 00:54:09;;;;;;;23.75;13.95;;;;;;;21.05;100.00;101001.50;5104037;28;20034;-70
2023/06/20 00:56:34;;;;;;;23.65;14.18;;;;;;;20.99;100.00;100990.13;5084434;28;20028;-70
2023/06/20 00:59:02;;;;;;;24.67;14.55;;;;;;;20.96;100.00;100990.25;5102597;28;20040;-71
2023/06/20 01:01:31;;;;;;;24.45;15.13;;;;;;;21.04;100.00;100990.81;5103182;28;20099;-71
2023/06/20 01:03:58;;;;;;;24.42;14.63;;;;;;;21.03;100.00;100991.75;5102539;28;20474;-70
2023/06/20 01:06:42;;;;;;;23.77;14.35;;;;;;;21.07;100.00;100982.63;5103908;28;20051;-71
2023/06/20 01:09:22;;;;;;;24.40;14.55;;;;;;;21.10;100.00;100982.53;5103765;28;20034;-70
2023/06/20 01:12:03;;;;;;;25.77;15.05;;;;;;;21.03;100.00;100978.34;5097548;28;20043;-70
2023/06/20 01:14:42;;;;;;;24.58;15.18;;;;;;;21.01;100.00;100982.88;5084615;28;20051;-71
2023/06/20 01:17:20;;;;;;;25.65;15.43;;;;;;;21.04;100.00;100980.06;5103686;28;20028;-70
2023/06/20 01:19:56;;;;;;;24.60;15.18;;;;;;;21.02;100.00;100984.63;5097146;28;20391;-69
2023/06/20 01:22:42;;;;;;;25.60;15.30;;;;;;;21.02;100.00;100984.63;5098338;28;20107;-71
2023/06/20 01:25:23;;;;;;;24.75;15.05;;;;;;;20.97;100.00;100981.22;5101393;28;20490;-70
2023/06/20 01:28:08;;;;;;;24.42;15.40;;;;;;;20.93;100.00;100982.28;5097395;28;20108;-64
2023/06/20 01:31:00;;;;;;;26.08;15.30;;;;;;;20.93;100.00;100975.09;5102196;28;20396;-66
2023/06/20 01:33:29;;;;;;;;;;;;;;;20.98;100.00;100970.41;5099841;28;20093;-70
2023/06/20 01:35:58;;;;;;;24.45;14.25;;;;;;;20.93;100.00;100969.72;5103450;28;19919;-70
2023/06/20 01:38:27;;;;;;;24.05;15.20;;;;;;;20.95;100.00;100969.66;5104403;28;20028;-70
2023/06/20 01:40:54;;;;;;;24.63;15.32;;;;;;;20.90;100.00;100965.34;5107364;28;20027;-69
2023/06/20 01:43:21;;;;;;;24.30;15.15;;;;;;;20.89;100.00;100971.63;5104984;28;20481;-70
2023/06/20 01:45:47;;;;;;;24.48;15.43;;;;;;;20.93;100.00;100960.81;5107887;28;20046;-67
2023/06/20 01:48:14;;;;;;;25.42;16.00;;;;;;;20.88;100.00;100951.09;5104326;28;20025;-70
2023/06/20 01:50:41;;;;;;;25.80;15.55;;;;;;;20.87;100.00;100952.03;5089361;28;20051;-71
2023/06/20 01:53:08;;;;;;;25.85;16.13;;;;;;;20.82;100.00;100950.44;5105128;28;20093;-70
2023/06/20 01:55:35;;;;;;;24.73;15.48;;;;;;;20.85;100.00;100945.84;5088260;28;20036;-70
2023/06/20 01:58:01;;;;;;;24.35;15.80;;;;;;;20.83;100.00;100941.44;5106245;28;20080;-70
2023/06/20 02:00:29;;;;;;;27.10;15.90;;;;;;;20.76;100.00;100951.53;5105865;28;20106;-71
2023/06/20 02:02:59;;;;;;;26.58;15.68;;;;;;;20.66;100.00;100945.63;5106613;28;20023;-69
2023/06/20 02:05:27;;;;;;;25.27;15.68;;;;;;;20.67;100.00;100946.50;5104899;28;20122;-69
2023/06/20 02:07:55;;;;;;;25.08;15.55;;;;;;;20.73;100.00;100946.28;5107278;28;20020;-69
2023/06/20 02:10:21;;;;;;;24.25;15.80;;;;;;;20.73;100.00;100932.84;5104472;28;20107;-70
2023/06/20 02:12:49;;;;;;;25.77;15.30;;;;;;;20.79;100.00;100942.50;5107773;28;20057;-70
2023/06/20 02:15:16;;;;;;;24.50;14.98;;;;;;;20.69;100.00;100932.09;5099979;28;20028;-70
2023/06/20 02:17:44;;;;;;;26.05;15.02;;;;;;;20.62;100.00;100937.69;5107054;28;20028;-70
2023/06/20 02:20:10;;;;;;;23.98;14.70;;;;;;;20.65;100.00;100938.47;5086105;28;20363;-70
2023/06/20 02:22:37;;;;;;;23.95;14.80;;;;;;;20.69;100.00;100936.56;5106422;28;20035;-70
2023/06/20 02:25:07;;;;;;;24.23;14.15;;;;;;;20.73;100.00;100944.44;5105246;28;20036;-70
2023/06/20 02:27:32;;;;;;;24.17;14.52;;;;;;;20.75;100.00;100933.69;5105503;28;20107;-67
2023/06/20 02:30:00;;;;;;;23.77;14.30;;;;;;;20.69;100.00;100941.94;5106043;28;20452;-71
2023/06/20 02:32:28;;;;;;;24.33;14.30;;;;;;;20.67;100.00;100943.81;5104679;28;20024;-65
2023/06/20 02:34:56;;;;;;;24.77;13.98;;;;;;;20.65;100.00;100943.84;5106390;28;20031;-69
2023/06/20 02:37:24;;;;;;;23.25;13.38;;;;;;;20.64;100.00;100942.09;5104053;28;20020;-71
2023/06/20 02:39:50;;;;;;;24.52;13.82;;;;;;;20.63;100.00;100939.44;5106631;28;20034;-70
2023/06/20 02:42:17;;;;;;;24.08;14.10;;;;;;;20.55;100.00;100937.06;5103478;28;20024;-69
2023/06/20 02:44:42;;;;;;;23.02;13.50;;;;;;;20.54;100.00;100937.97;5106785;28;20028;-62
2023/06/20 02:47:29;;;;;;;23.23;13.55;;;;;;;20.48;100.00;100940.88;5103965;28;20542;-65
2023/06/20 02:50:12;;;;;;;24.17;15.00;;;;;;;20.42;100.00;100935.75;5101122;28;20090;-61
2023/06/20 02:52:46;;;;;;;23.40;13.93;;;;;;;20.37;100.00;100938.56;5104047;28;20057;-67
2023/06/20 02:55:51;;;;;;;23.50;13.50;;;;;;;20.35;100.00;100935.06;5106218;28;20462;-66
2023/06/20 02:58:20;;;;;;;24.75;14.40;;;;;;;20.25;100.00;100941.69;5099431;28;20020;-67
2023/06/20 03:00:50;;;;;;;24.52;14.00;;;;;;;20.13;100.00;100934.94;5099201;28;20475;-66
2023/06/20 03:03:22;;;;;;;23.65;14.45;;;;;;;20.13;100.00;100933.13;5098981;28;20080;-63
2023/06/20 03:05:48;;;;;;;;;;;;;;;20.20;100.00;100937.34;5099827;28;20073;-66
2023/06/20 03:08:17;;;;;;;23.67;13.95;;;;;;;20.07;100.00;100930.66;5106340;28;19916;-66
2023/06/20 03:10:45;;;;;;;24.30;14.05;;;;;;;20.01;100.00;100929.06;5102975;28;20028;-66
2023/06/20 03:13:14;;;;;;;22.60;13.90;;;;;;;19.98;100.00;100926.47;5106155;28;20042;-65
2023/06/20 03:15:40;;;;;;;23.60;13.88;;;;;;;19.96;100.00;100922.09;5103491;28;20039;-63
2023/06/20 03:18:05;;;;;;;24.42;14.43;;;;;;;19.83;100.00;100919.81;5104936;28;20044;-62
2023/06/20 03:20:30;;;;;;;22.98;14.18;;;;;;;19.83;100.00;100911.78;5104618;28;20019;-62
2023/06/20 03:22:56;;;;;;;23.92;13.80;;;;;;;19.78;100.00;100912.81;5103523;28;20077;-66
2023/06/20 03:25:22;;;;;;;24.23;13.52;;;;;;;19.75;100.00;100913.78;5105791;28;20028;-65
2023/06/20 03:27:47;;;;;;;24.77;14.13;;;;;;;19.73;100.00;100926.38;5102687;28;20063;-62
2023/06/20 03:30:14;;;;;;;24.45;14.18;;;;;;;19.73;100.00;100926.38;5105728;28;20060;-67
2023/06/20 03:32:40;;;;;;;23.77;13.90;;;;;;;19.72;100.00;100931.75;5103030;28;20482;-64
2023/06/20 03:35:06;;;;;;;23.65;13.68;;;;;;;19.59;100.00;100923.25;5104714;28;20031;-65
2023/06/20 03:37:32;;;;;;;24.88;13.73;;;;;;;19.56;100.00;100929.59;5104005;28;20518;-63
2023/06/20 03:39:57;;;;;;;26.67;14.35;;;;;;;19.54;100.00;100935.94;5103234;28;20028;-62
2023/06/20 03:42:22;;;;;;;23.98;14.18;;;;;;;19.56;100.00;100944.81;5105501;28;20020;-67
2023/06/20 03:44:48;;;;;;;23.60;13.98;;;;;;;19.51;100.00;100948.50;5102268;28;20036;-64
2023/06/20 03:47:13;;;;;;;24.75;14.65;;;;;;;19.44;100.00;100952.31;5105364;28;20137;-63
2023/06/20 03:49:39;;;;;;;24.50;14.48;;;;;;;19.41;100.00;100947.03;5102899;28;20060;-62
2023/06/20 03:52:04;;;;;;;24.90;14.95;;;;;;;19.37;100.00;100961.47;5103980;28;20071;-63
2023/06/20 03:54:30;;;;;;;25.00;14.40;;;;;;;19.40;100.00;100963.19;5104009;28;20435;-61
2023/06/20 03:56:55;;;;;;;25.38;14.27;;;;;;;19.45;100.00;100970.13;5102950;28;20024;-61
2023/06/20 03:59:20;;;;;;;26.27;14.90;;;;;;;19.45;100.00;100966.56;5104425;28;20076;-61
2023/06/20 04:01:46;;;;;;;25.85;14.65;;;;;;;19.44;100.00;100972.84;5102000;28;20044;-63
2023/06/20 04:04:13;;;;;;;25.45;14.65;;;;;;;19.39;100.00;100967.63;5104864;28;20072;-67
2023/06/20 04:06:39;;;;;;;24.35;15.32;;;;;;;19.36;100.00;100970.41;5102485;28;20043;-61
2023/06/20 04:09:04;;;;;;;25.88;14.90;;;;;;;19.33;100.00;100976.72;5103973;28;20016;-66
2023/06/20 04:11:29;;;;;;;24.48;14.98;;;;;;;19.33;100.00;100970.50;5103785;28;20031;-61
2023/06/20 04:13:55;;;;;;;25.73;15.25;;;;;;;19.41;100.00;100979.22;5102390;28;20032;-67
2023/06/20 04:16:21;;;;;;;23.92;14.70;;;;;;;19.43;100.00;100963.06;5105052;28;20035;-70
2023/06/20 04:18:46;;;;;;;25.83;14.98;;;;;;;19.41;100.00;100962.22;5083255;28;20123;-69
2023/06/20 04:21:11;;;;;;;25.77;14.80;;;;;;;19.47;100.00;100957.56;5104512;28;20089;-70
2023/06/20 04:23:37;;;;;;;25.27;15.70;;;;;;;19.56;100.00;100952.84;5102632;28;20504;-69
2023/06/20 04:26:03;;;;;;;25.65;15.68;;;;;;;19.46;100.00;100952.25;5103283;28;20513;-70
2023/06/20 04:28:29;;;;;;;24.33;15.43;;;;;;;19.51;100.00;100943.16;5103647;28;20482;-69
2023/06/20 04:30:55;;;;;;;24.50;14.85;;;;;;;19.52;100.00;100941.34;5102137;28;20051;-70
2023/06/20 04:33:22;;;;;;;25.75;15.93;;;;;;;19.52;100.00;100936.84;5104868;28;20028;-70
2023/06/20 04:35:47;;;;;;;25.77;15.13;;;;;;;19.56;100.00;100944.81;5101294;28;20021;-70
2023/06/20 04:38:13;;;;;;;24.92;15.70;;;;;;;19.71;100.00;100938.06;5104479;28;20531;-67
2023/06/20 04:40:38;;;;;;;25.25;15.50;;;;;;;19.73;100.00;100942.47;5102176;28;20563;-70
2023/06/20 04:43:03;;;;;;;26.05;16.20;;;;;;;19.78;100.00;100935.16;5103142;28;20024;-63
2023/06/20 04:45:30;;;;;;;25.45;15.95;;;;;;;19.79;100.00;100933.34;5103653;28;20042;-70
2023/06/20 04:47:56;;;;;;;25.88;16.13;;;;;;;19.84;100.00;100929.59;5101928;28;20036;-70
2023/06/20 04:50:22;;;;;;;26.25;16.20;;;;;;;19.94;100.00;100930.19;5104478;28;20116;-70
2023/06/20 04:52:48;;;;;;;24.48;15.65;;;;;;;20.07;100.00;100927.97;5082988;28;20115;-70
2023/06/20 04:55:13;;;;;;;25.38;15.70;;;;;;;20.18;100.00;100928.50;5086288;28;20446;-70
2023/06/20 04:57:38;;;;;;;25.27;15.80;;;;;;;20.33;100.00;100928.88;5102236;28;20110;-70
2023/06/20 05:00:07;;;;;;;27.45;17.13;;;;;;;20.43;100.00;100932.09;5102864;28;20086;-70
2023/06/20 05:02:33;;;;;;;26.70;17.10;;;;;;;20.61;100.00;100931.44;5102808;28;20077;-70
2023/06/20 05:04:58;;;;;;;26.83;17.02;;;;;;;20.63;100.00;100926.03;5102321;28;20106;-70
2023/06/20 05:07:23;;;;;;;26.48;16.77;;;;;;;20.81;100.00;100927.19;5104012;28;20500;-71
2023/06/20 05:09:49;;;;;;;26.70;17.05;;;;;;;21.02;100.00;100923.69;5100845;28;20021;-71
2023/06/20 05:12:15;;;;;;;26.80;17.50;;;;;;;21.15;100.00;100921.41;5107583;28;20028;-71
2023/06/20 05:14:40;;;;;;;26.38;17.25;;;;;;;21.27;100.00;100911.13;5105814;28;20016;-71
2023/06/20 05:17:05;;;;;;;27.42;17.67;;;;;;;21.45;100.00;100915.78;5107100;28;20375;-71
2023/06/20 05:19:32;;;;;;;26.05;17.35;;;;;;;21.70;100.00;100909.44;5107317;28;20040;-71
2023/06/20 05:21:58;;;;;;;26.15;17.42;;;;;;;21.88;100.00;100903.28;5106008;28;20028;-71
2023/06/20 05:24:23;;;;;;;26.70;16.38;;;;;;;22.11;100.00;100901.44;5107848;28;20038;-71
2023/06/20 05:26:49;;;;;;;26.08;16.25;;;;;;;22.39;100.00;100902.97;5104961;28;20020;-72
2023/06/20 05:29:14;;;;;;;28.13;16.38;;;;;;;22.52;100.00;100896.09;5108042;28;20436;-71
2023/06/20 05:31:41;;;;;;;26.55;16.50;;;;;;;22.69;100.00;100899.81;5105477;28;20059;-71
2023/06/20 05:34:06;;;;;;;26.10;14.93;;;;;;;22.81;100.00;100886.66;5107354;28;20382;-71
2023/06/20 05:36:31;;;;;;;24.95;15.25;;;;;;;22.89;100.00;100886.34;5106682;28;20110;-72
2023/06/20 05:38:58;;;;;;;27.17;15.60;;;;;;;22.89;100.00;100891.72;5105477;28;20031;-71
2023/06/20 05:41:24;;;;;;;26.20;14.82;;;;;;;22.91;100.00;100884.44;5107877;28;20103;-72
2023/06/20 05:43:50;;;;;;;25.17;14.68;;;;;;;22.89;100.00;100883.66;5104528;28;20040;-71
2023/06/20 05:46:15;;;;;;;24.02;14.02;;;;;;;22.86;100.00;100882.91;5107957;28;20023;-72
2023/06/20 05:48:40;;;;;;;21.30;10.27;;;;;;;22.86;100.00;100878.38;5098021;28;20239;-70
2023/06/20 05:51:06;;;;;;;21.70;10.00;;;;;;;22.88;100.00;100887.28;5095144;28;20127;-67
2023/06/20 05:53:31;;;;;;;19.15;7.80;;;;;;;22.83;100.00;100883.91;5096935;28;20119;-68
2023/06/20 05:55:57;;;;;;;19.55;8.60;;;;;;;22.86;100.00;100883.75;5097527;28;20115;-62
2023/06/20 05:58:22;;;;;;;19.08;7.78;;;;;;;22.90;100.00;100890.75;5097825;28;20048;-65
2023/06/20 06:00:49;;;;;;;19.83;8.23;;;;;;;22.84;100.00;100896.44;5096032;28;20040;-67
2023/06/20 06:03:14;;;;;;;19.65;8.23;;;;;;;22.66;100.00;100908.03;5097593;28;20073;-69
2023/06/20 06:05:39;;;;;;;19.95;7.75;;;;;;;22.50;100.00;100907.88;5103828;28;20036;-64
2023/06/20 06:08:05;;;;;;;18.73;6.75;;;;;;;22.41;100.00;100903.75;5104689;28;20024;-68
2023/06/20 06:10:32;;;;;;;18.30;6.18;;;;;;;22.35;100.00;100909.41;5107139;28;20023;-69
2023/06/20 06:12:57;;;;;;;17.90;6.30;;;;;;;22.36;100.00;100916.56;5103708;28;20107;-69
2023/06/20 06:15:22;;;;;;;17.83;6.70;;;;;;;22.38;100.00;100914.66;5107493;28;20440;-65
2023/06/20 06:17:48;;;;;;;18.50;6.82;;;;;;;22.31;100.00;100902.38;5103997;28;20044;-63
2023/06/20 06:20:17;;;;;;;18.00;6.60;;;;;;;22.28;100.00;100906.97;5087923;28;20069;-63
2023/06/20 06:22:42;;;;;;;18.52;7.05;;;;;;;22.25;100.00;100900.81;5103971;28;20026;-63
2023/06/20 06:25:08;;;;;;;17.20;6.55;;;;;;;22.33;100.00;100898.72;5103428;28;20035;-62
2023/06/20 06:27:34;;;;;;;18.70;6.97;;;;;;;22.38;100.00;100899.41;5105301;28;20394;-62
2023/06/20 06:30:00;;;;;;;17.67;6.88;;;;;;;22.35;100.00;100898.66;5105884;28;20063;-62
2023/06/20 06:32:27;;;;;;;17.77;6.40;;;;;;;22.28;100.00;100896.19;5104206;28;20435;-74
2023/06/20 06:34:53;;;;;;;19.67;6.63;;;;;;;22.31;100.00;100902.38;5106388;28;20026;-62
2023/06/20 06:37:20;;;;;;;19.42;6.97;;;;;;;22.29;100.00;100908.72;5103930;28;20378;-63
2023/06/20 06:39:45;;;;;;;18.30;7.40;;;;;;;22.27;100.00;100924.06;5106274;28;20036;-65
2023/06/20 06:42:11;;;;;;;18.20;7.18;;;;;;;22.16;100.00;100920.09;5103236;28;20363;-68
2023/06/20 06:44:37;;;;;;;18.50;7.60;;;;;;;22.18;100.00;100900.25;5106501;28;20051;-62
2023/06/20 06:47:02;;;;;;;19.60;7.55;;;;;;;22.23;100.00;100900.91;5103882;28;20031;-67
2023/06/20 06:49:28;;;;;;;18.25;7.10;;;;;;;22.36;100.00;100903.97;5105652;28;20126;-66
2023/06/20 06:51:54;;;;;;;19.60;7.95;;;;;;;22.48;100.00;100907.06;5104242;28;20427;-71
2023/06/20 06:54:20;;;;;;;20.83;8.88;;;;;;;22.56;100.00;100904.91;5104866;28;20534;-66
2023/06/20 06:56:45;;;;;;;19.65;7.78;;;;;;;22.59;100.00;100900.25;5105675;28;20111;-70
2023/06/20 06:59:11;;;;;;;19.50;7.65;;;;;;;22.56;100.00;100908.47;5103053;28;20031;-68
2023/06/20 07:01:36;;;;;;;18.50;7.40;;;;;;;22.56;100.00;100905.78;5084988;28;20043;-69
2023/06/20 07:04:02;;;;;;;18.65;7.30;;;;;;;22.60;100.00;100903.81;5106504;28;20169;-69
2023/06/20 07:06:27;;;;;;;20.00;7.45;;;;;;;22.58;100.00;100903.00;5102865;28;20040;-62
2023/06/20 07:08:52;;;;;;;18.60;7.45;;;;;;;22.62;100.00;100902.81;5105350;28;20034;-70
2023/06/20 07:11:18;;;;;;;18.90;7.38;;;;;;;22.75;100.00;100905.81;5104008;28;20130;-61
2023/06/20 07:13:43;;;;;;;19.58;7.68;;;;;;;22.85;100.00;100902.69;5102499;28;20131;-71
2023/06/20 07:16:09;;;;;;;18.38;7.20;;;;;;;23.00;100.00;100901.13;5104116;28;20381;-66
2023/06/20 07:18:34;;;;;;;17.65;7.30;;;;;;;23.09;100.00;100895.28;5104866;28;20039;-69
2023/06/20 07:21:02;;;;;;;17.27;6.93;;;;;;;23.18;100.00;100894.88;5102836;28;20028;-71
2023/06/20 07:23:28;;;;;;;18.50;7.30;;;;;;;23.34;100.00;100900.41;5086896;28;20027;-68
2023/06/20 07:25:53;;;;;;;19.42;7.28;;;;;;;23.45;100.00;100886.44;5102745;28;20103;-73
2023/06/20 07:28:19;;;;;;;18.83;6.80;;;;;;;23.60;100.00;100887.47;5105652;28;20024;-69
2023/06/20 07:30:44;;;;;;;19.10;6.90;;;;;;;23.71;100.00;100887.84;5102249;28;20028;-69
2023/06/20 07:33:09;;;;;;;18.52;6.95;;;;;;;23.76;100.00;100882.19;5104876;28;20032;-69
2023/06/20 07:35:35;;;;;;;19.60;7.20;;;;;;;23.86;100.00;100875.41;5084267;28;20020;-63
2023/06/20 07:38:00;;;;;;;18.80;7.13;;;;;;;23.96;100.00;100875.84;5102680;28;20054;-62
2023/06/20 07:40:26;;;;;;;19.27;7.40;;;;;;;24.02;100.00;100876.38;5104489;28;20047;-62
2023/06/20 07:42:51;;;;;;;17.70;7.10;;;;;;;24.08;100.00;100863.53;5102025;28;20016;-62
2023/06/20 07:45:16;;;;;;;18.02;7.18;;;;;;;24.27;100.00;100867.00;5105526;28;20463;-62
2023/06/20 07:47:42;;;;;;;20.05;7.72;;;;;;;24.40;100.00;100871.75;5083666;28;20370;-61
2023/06/20 07:50:07;;;;;;;18.63;7.40;;;;;;;24.51;100.00;100878.34;5105200;28;20052;-63
2023/06/20 07:52:33;;;;;;;18.75;7.75;;;;;;;24.67;98.14;100886.50;5102401;28;20066;-61
2023/06/20 07:55:01;;;;;;;17.85;7.28;;;;;;;24.81;94.89;100895.69;5104314;28;20027;-65
2023/06/20 07:57:27;;;;;;;19.55;7.70;;;;;;;24.70;92.71;100896.28;5103259;28;20023;-63
2023/06/20 07:59:52;;;;;;;18.52;8.18;;;;;;;24.74;92.92;100892.44;5101359;28;20391;-69
2023/06/20 08:02:17;;;;;;;19.02;7.85;;;;;;;24.81;91.86;100895.69;5103436;28;20043;-69
2023/06/20 08:04:43;;;;;;;18.38;7.78;;;;;;;24.95;92.87;100895.81;5104119;28;20023;-67
2023/06/20 08:07:08;;;;;;;18.50;7.95;;;;;;;24.95;89.75;100893.09;5102128;28;20031;-69
2023/06/20 08:09:33;;;;;;;17.67;6.85;;;;;;;25.11;89.33;100881.47;5104981;28;20034;-64
2023/06/20 08:11:59;;;;;;;18.38;7.63;;;;;;;25.28;88.74;100889.50;5083700;28;20462;-69
2023/06/20 08:14:24;;;;;;;18.20;7.53;;;;;;;25.34;85.34;100886.47;5104199;28;20036;-70
2023/06/20 08:16:49;;;;;;;18.67;7.20;;;;;;;25.43;86.43;100886.91;5101103;28;20448;-69
2023/06/20 08:19:15;;;;;;;18.55;6.90;;;;;;;25.43;84.87;100886.91;5101438;28;20423;-70
2023/06/20 08:21:40;;;;;;;18.73;7.20;;;;;;;25.37;84.91;100888.97;5104963;28;20168;-69
2023/06/20 08:24:05;;;;;;;17.20;6.95;;;;;;;25.40;84.26;100882.53;5102392;28;20386;-69
2023/06/20 08:26:31;;;;;;;18.25;7.15;;;;;;;25.58;84.94;100886.00;5103510;28;20103;-70
2023/06/20 08:28:56;;;;;;;18.02;7.43;;;;;;;25.47;85.41;100883.94;5103495;28;20067;-70
2023/06/20 08:31:21;;;;;;;19.08;7.32;;;;;;;25.52;86.07;100886.38;5101781;28;20077;-67
2023/06/20 08:33:47;;;;;;;18.10;6.80;;;;;;;25.74;84.62;100884.13;5105110;28;20035;-69
2023/06/20 08:36:12;;;;;;;17.67;6.70;;;;;;;25.96;81.07;100885.56;5101264;28;20025;-68
2023/06/20 08:38:38;;;;;;;18.55;6.70;;;;;;;26.16;80.06;100888.97;5104276;28;20085;-69
2023/06/20 08:41:08;;;;;;;20.10;7.60;;;;;;;26.26;81.58;100882.03;5102564;28;20038;-67
2023/06/20 08:43:34;;;;;;;18.13;7.22;;;;;;;26.33;78.19;100883.41;5103488;28;20066;-70
2023/06/20 08:46:00;;;;;;;17.92;7.30;;;;;;;26.38;76.20;100881.25;5102399;28;20031;-69
2023/06/20 08:48:26;;;;;;;16.15;6.20;;;;;;;26.48;76.11;100880.72;5099389;28;20020;-64
2023/06/20 08:50:52;;;;;;;17.15;6.45;;;;;;;26.54;75.26;100885.75;5102550;28;20044;-70
2023/06/20 08:53:18;;;;;;;17.55;6.53;;;;;;;26.60;75.09;100882.63;5103151;28;20102;-68
2023/06/20 08:55:44;;;;;;;17.58;6.10;;;;;;;26.81;74.56;100880.47;5101930;28;20028;-68
2023/06/20 08:58:11;;;;;;;15.25;5.65;;;;;;;26.99;69.48;100881.13;5103991;28;20047;-63
2023/06/20 09:00:38;;;;;;;15.57;5.78;;;;;;;26.82;69.47;100878.63;5101600;28;20042;-66
2023/06/20 09:03:04;;;;;;;17.75;6.15;;;;;;;26.92;69.25;100871.63;5078145;28;20024;-66
2023/06/20 09:05:40;;;;;;;15.13;5.70;;;;;;;27.07;69.90;100876.09;5097679;28;20046;-66
2023/06/20 09:08:06;;;;;;;16.73;5.80;;;;;;;26.98;68.18;100873.94;5103038;28;20028;-62
2023/06/20 09:10:33;;;;;;;17.25;5.88;;;;;;;26.84;69.25;100866.72;5101384;28;20022;-67
2023/06/20 09:12:58;;;;;;;15.95;5.65;;;;;;;27.17;70.17;100872.75;5104002;28;20088;-66
2023/06/20 09:15:26;;;;;;;16.40;5.70;;;;;;;27.10;68.10;100872.28;5101130;28;20542;-68
2023/06/20 09:18:01;;;;;;;14.68;5.85;;;;;;;27.24;68.86;100872.25;5103361;28;20035;-70
2023/06/20 09:20:28;;;;;;;17.55;5.85;;;;;;;27.63;66.89;100877.91;5098837;28;20035;-66
2023/06/20 09:22:54;;;;;;;16.55;5.93;;;;;;;27.95;64.44;100877.56;5100814;28;20028;-62
2023/06/20 09:25:22;;;;;;;16.75;5.68;;;;;;;27.94;64.46;100883.97;5103964;28;20369;-65
2023/06/20 09:27:49;;;;;;;15.77;6.00;;;;;;;27.68;64.26;100888.44;5098231;28;20031;-68
2023/06/20 09:30:14;;;;;;;16.27;6.28;;;;;;;27.58;64.93;100885.47;5100759;28;20119;-67
2023/06/20 09:32:40;;;;;;;15.75;5.93;;;;;;;27.68;64.68;100900.16;5104330;28;20576;-68
2023/06/20 09:35:11;;;;;;;16.05;5.43;;;;;;;27.60;63.03;100886.25;5101040;28;20043;-66
2023/06/20 09:37:37;;;;;;;16.65;5.50;;;;;;;27.74;62.99;100883.50;5103320;28;20044;-67
2023/06/20 09:40:10;;;;;;;16.15;5.55;;;;;;;28.00;63.61;100889.00;5103794;28;20470;-68
2023/06/20 09:42:38;;;;;;;15.90;5.85;;;;;;;28.21;61.88;100885.78;5101302;28;20024;-67
2023/06/20 09:45:03;;;;;;;15.02;5.25;;;;;;;28.42;58.58;100889.72;5103513;28;20028;-67
2023/06/20 09:47:29;;;;;;;15.93;5.38;;;;;;;27.81;61.68;100890.25;5102654;28;20046;-68
2023/06/20 09:49:58;;;;;;;14.65;5.20;;;;;;;27.76;60.79;100891.53;5100870;28;20050;-66
2023/06/20 09:52:44;;;;;;;14.80;5.30;;;;;;;27.55;61.49;100889.28;5103622;28;20131;-66
2023/06/20 09:55:11;;;;;;;15.13;5.57;;;;;;;28.02;62.43;100884.34;5102790;28;20069;-62
2023/06/20 09:57:49;;;;;;;13.68;5.45;;;;;;;28.15;61.56;100885.25;5101913;28;20431;-68
2023/06/20 10:00:17;;;;;;;16.00;5.45;;;;;;;28.14;61.21;100886.22;5104034;28;20060;-62
2023/06/20 10:02:46;;;;;;;14.15;5.35;;;;;;;28.49;60.40;100884.72;5103616;28;20478;-63
2023/06/20 10:05:14;;;;;;;16.02;5.82;;;;;;;28.72;57.94;100882.25;5102098;28;20020;-62
2023/06/20 10:07:41;;;;;;;16.77;5.57;;;;;;;29.26;57.60;100883.84;5103307;28;20501;-63
2023/06/20 10:10:07;;;;;;;14.57;5.20;;;;;;;30.21;53.50;100878.47;5099965;28;20065;-64
2023/06/20 10:12:33;;;;;;;13.68;4.88;;;;;;;31.91;50.25;100881.13;5106781;28;20447;-67
2023/06/20 10:15:01;;;;;;;12.65;4.38;;;;;;;32.50;44.50;100875.09;5104490;28;20070;-69
2023/06/20 10:17:31;;;;;;;11.93;4.43;;;;;;;32.27;44.60;100879.84;5106151;28;20437;-70
2023/06/20 10:19:58;;;;;;;11.00;4.30;;;;;;;32.39;42.84;100877.91;5105040;28;20027;-63
2023/06/20 10:22:42;;;;;;;11.73;4.38;;;;;;;33.65;42.36;100873.06;5105347;28;20050;-71
2023/06/20 10:25:12;;;;;;;11.00;4.30;;;;;;;35.35;38.81;100862.28;5100008;28;20036;-67
2023/06/20 10:27:42;;;;;;;13.80;4.32;;;;;;;36.04;36.58;100865.34;5100007;28;20028;-68
2023/06/20 10:30:11;;;;;;;10.30;4.20;;;;;;;36.80;34.61;100858.31;5099773;28;20379;-68
2023/06/20 10:33:09;;;;;;;11.07;4.00;;;;;;;37.90;34.63;100868.47;5107019;28;20032;-68
2023/06/20 10:35:34;;;;;;;11.98;4.07;;;;;;;37.73;33.25;100845.53;5097563;28;20031;-67
2023/06/20 10:38:08;;;;;;;11.35;3.80;;;;;;;38.44;32.69;100838.41;5099792;28;20501;-65
2023/06/20 10:40:36;;;;;;;10.85;3.90;;;;;;;39.10;30.74;100832.66;5103725;28;20059;-62
2023/06/20 10:43:09;;;;;;;8.20;3.50;;;;;;;39.54;29.90;100839.50;5106463;28;20031;-68
2023/06/20 10:45:35;;;;;;;9.40;3.70;;;;;;;39.73;29.44;100838.19;5103407;28;20031;-62
2023/06/20 10:48:02;;;;;;;9.70;3.50;;;;;;;40.21;28.51;100832.38;5105733;28;20032;-66
2023/06/20 10:50:28;;;;;;;9.48;3.60;;;;;;;40.64;28.23;100821.53;5101215;28;20070;-70
2023/06/20 10:52:53;;;;;;;10.85;3.72;;;;;;;40.76;28.46;100828.34;5103441;28;20379;-74
2023/06/20 10:55:27;;;;;;;7.40;3.35;;;;;;;41.37;27.38;100827.16;5081612;28;20028;-64
2023/06/20 10:57:54;;;;;;;11.55;3.50;;;;;;;41.46;26.42;100828.78;5103205;28;20038;-67
2023/06/20 11:00:21;;;;;;;6.95;3.10;;;;;;;41.17;24.59;100835.25;5103872;28;20057;-68
2023/06/20 11:02:53;;;;;;;5.88;3.10;;;;;;;38.48;28.49;100814.94;5105844;28;20024;-68
2023/06/20 11:05:23;;;;;;;9.20;3.10;;;;;;;37.80;29.31;100808.81;5099305;28;20469;-68
2023/06/20 11:07:57;;;;;;;10.65;3.30;;;;;;;37.45;29.93;100808.09;5099575;28;20169;-67
2023/06/20 11:10:40;;;;;;;8.15;3.20;;;;;;;36.88;31.57;100802.44;5099811;28;20043;-68